sensor_id;sensor_type;location;lat;lon;timestamp;P1;durP1;ratioP1;P2;durP2;ratioP2
71655;SDS011;59497;48.798;8.816;2023-08-30T00:01:09;3.17;;;2.83;;
71655;SDS011;59497;48.798;8.816;2023-08-30T00:03:34;3.00;;;2.70;;
71655;SDS011;59497;48.798;8.816;2023-08-30T00:06:03;2.63;;;2.43;;
71655;SDS011;59497;48.798;8.816;2023-08-30T00:08:29;2.88;;;2.67;;
71655;SDS011;59497;48.798;8.816;2023-08-30T00:10:54;7.97;;;3.03;;
71655;SDS011;59497;48.798;8.816;2023-08-30T00:13:21;4.53;;;2.83;;
71655;SDS011;59497;48.798;8.816;2023-08-30T00:15:46;2.80;;;2.60;;
71655;SDS011;59497;48.798;8.816;2023-08-30T00:18:11;3.03;;;2.80;;
71655;SDS011;59497;48.798;8.816;2023-08-30T00:20:36;4.03;;;2.70;;
71655;SDS011;59497;48.798;8.816;2023-08-30T00:23:02;4.57;;;2.53;;
71655;SDS011;59497;48.798;8.816;2023-08-30T00:25:28;3.13;;;2.80;;
71655;SDS011;59497;48.798;8.816;2023-08-30T00:27:53;3.37;;;3.07;;
71655;SDS011;59497;48.798;8.816;2023-08-30T00:30:18;4.30;;;2.57;;
71655;SDS011;59497;48.798;8.816;2023-08-30T00:32:43;3.10;;;2.80;;
71655;SDS011;59497;48.798;8.816;2023-08-30T00:35:09;4.33;;;3.10;;
71655;SDS011;59497;48.798;8.816;2023-08-30T00:37:35;3.90;;;3.10;;
71655;SDS011;59497;48.798;8.816;2023-08-30T00:40:00;3.10;;;2.70;;
71655;SDS011;59497;48.798;8.816;2023-08-30T00:42:25;3.37;;;3.07;;
71655;SDS011;59497;48.798;8.816;2023-08-30T00:44:52;3.33;;;3.03;;
71655;SDS011;59497;48.798;8.816;2023-08-30T00:47:17;3.00;;;2.80;;
71655;SDS011;59497;48.798;8.816;2023-08-30T00:49:42;3.27;;;2.83;;
71655;SDS011;59497;48.798;8.816;2023-08-30T00:52:08;2.75;;;2.53;;
71655;SDS011;59497;48.798;8.816;2023-08-30T00:54:34;3.42;;;3.10;;
71655;SDS011;59497;48.798;8.816;2023-08-30T00:57:00;3.17;;;2.87;;
71655;SDS011;59497;48.798;8.816;2023-08-30T00:59:25;3.40;;;3.10;;
71655;SDS011;59497;48.798;8.816;2023-08-30T01:01:51;3.63;;;3.05;;
71655;SDS011;59497;48.798;8.816;2023-08-30T01:04:16;3.87;;;2.80;;
71655;SDS011;59497;48.798;8.816;2023-08-30T01:06:41;3.27;;;3.00;;
71655;SDS011;59497;48.798;8.816;2023-08-30T01:09:07;3.00;;;2.70;;
71655;SDS011;59497;48.798;8.816;2023-08-30T01:11:35;5.57;;;2.87;;
71655;SDS011;59497;48.798;8.816;2023-08-30T01:16:27;3.03;;;2.83;;
71655;SDS011;59497;48.798;8.816;2023-08-30T01:18:54;3.20;;;2.90;;
71655;SDS011;59497;48.798;8.816;2023-08-30T01:24:04;4.05;;;2.63;;
71655;SDS011;59497;48.798;8.816;2023-08-30T01:26:42;4.70;;;3.13;;
71655;SDS011;59497;48.798;8.816;2023-08-30T01:29:09;3.30;;;2.78;;
71655;SDS011;59497;48.798;8.816;2023-08-30T01:31:35;3.22;;;2.92;;
71655;SDS011;59497;48.798;8.816;2023-08-30T01:34:03;3.28;;;2.58;;
71655;SDS011;59497;48.798;8.816;2023-08-30T01:36:29;4.00;;;3.43;;
71655;SDS011;59497;48.798;8.816;2023-08-30T01:38:54;5.95;;;3.55;;
71655;SDS011;59497;48.798;8.816;2023-08-30T01:41:20;4.00;;;2.72;;
71655;SDS011;59497;48.798;8.816;2023-08-30T01:43:48;4.87;;;3.10;;
71655;SDS011;59497;48.798;8.816;2023-08-30T01:46:13;3.97;;;3.15;;
71655;SDS011;59497;48.798;8.816;2023-08-30T01:48:39;3.40;;;3.08;;
71655;SDS011;59497;48.798;8.816;2023-08-30T01:51:05;2.93;;;2.67;;
71655;SDS011;59497;48.798;8.816;2023-08-30T01:53:31;3.38;;;3.08;;
71655;SDS011;59497;48.798;8.816;2023-08-30T01:55:57;3.67;;;3.37;;
71655;SDS011;59497;48.798;8.816;2023-08-30T01:58:22;4.07;;;3.00;;
71655;SDS011;59497;48.798;8.816;2023-08-30T02:00:47;3.20;;;2.67;;
71655;SDS011;59497;48.798;8.816;2023-08-30T02:03:13;3.40;;;2.60;;
71655;SDS011;59497;48.798;8.816;2023-08-30T02:08:16;3.17;;;2.78;;
71655;SDS011;59497;48.798;8.816;2023-08-30T02:10:44;5.47;;;2.87;;
71655;SDS011;59497;48.798;8.816;2023-08-30T02:13:10;3.05;;;2.80;;
71655;SDS011;59497;48.798;8.816;2023-08-30T02:15:36;3.78;;;3.17;;
71655;SDS011;59497;48.798;8.816;2023-08-30T02:18:03;3.77;;;2.93;;
71655;SDS011;59497;48.798;8.816;2023-08-30T02:20:29;3.35;;;3.05;;
71655;SDS011;59497;48.798;8.816;2023-08-30T02:22:57;3.60;;;3.13;;
71655;SDS011;59497;48.798;8.816;2023-08-30T02:25:23;3.40;;;3.10;;
71655;SDS011;59497;48.798;8.816;2023-08-30T02:27:49;3.90;;;3.40;;
71655;SDS011;59497;48.798;8.816;2023-08-30T02:30:14;3.77;;;3.40;;
71655;SDS011;59497;48.798;8.816;2023-08-30T02:32:39;4.90;;;3.80;;
71655;SDS011;59497;48.798;8.816;2023-08-30T02:35:04;3.63;;;3.33;;
71655;SDS011;59497;48.798;8.816;2023-08-30T02:37:30;4.03;;;3.70;;
71655;SDS011;59497;48.798;8.816;2023-08-30T02:39:55;3.80;;;3.27;;
71655;SDS011;59497;48.798;8.816;2023-08-30T02:42:20;4.07;;;3.40;;
71655;SDS011;59497;48.798;8.816;2023-08-30T02:44:45;3.67;;;3.37;;
71655;SDS011;59497;48.798;8.816;2023-08-30T02:47:11;3.37;;;3.07;;
71655;SDS011;59497;48.798;8.816;2023-08-30T02:49:36;3.63;;;3.30;;
71655;SDS011;59497;48.798;8.816;2023-08-30T02:52:01;5.27;;;3.00;;
71655;SDS011;59497;48.798;8.816;2023-08-30T02:54:26;3.70;;;3.40;;
71655;SDS011;59497;48.798;8.816;2023-08-30T02:56:51;4.07;;;3.23;;
71655;SDS011;59497;48.798;8.816;2023-08-30T02:59:17;4.17;;;3.77;;
71655;SDS011;59497;48.798;8.816;2023-08-30T03:01:42;5.10;;;3.90;;
71655;SDS011;59497;48.798;8.816;2023-08-30T03:04:07;4.57;;;4.00;;
71655;SDS011;59497;48.798;8.816;2023-08-30T03:06:33;5.13;;;3.55;;
71655;SDS011;59497;48.798;8.816;2023-08-30T03:08:58;3.70;;;3.40;;
71655;SDS011;59497;48.798;8.816;2023-08-30T03:11:23;4.03;;;3.60;;
71655;SDS011;59497;48.798;8.816;2023-08-30T03:13:49;3.60;;;3.30;;
71655;SDS011;59497;48.798;8.816;2023-08-30T03:16:15;3.58;;;3.17;;
71655;SDS011;59497;48.798;8.816;2023-08-30T03:18:41;5.60;;;3.63;;
71655;SDS011;59497;48.798;8.816;2023-08-30T03:21:06;5.00;;;3.58;;
71655;SDS011;59497;48.798;8.816;2023-08-30T03:23:32;5.90;;;4.10;;
71655;SDS011;59497;48.798;8.816;2023-08-30T03:25:58;4.60;;;3.57;;
71655;SDS011;59497;48.798;8.816;2023-08-30T03:28:23;4.00;;;3.70;;
71655;SDS011;59497;48.798;8.816;2023-08-30T03:30:48;3.63;;;3.33;;
71655;SDS011;59497;48.798;8.816;2023-08-30T03:33:13;3.30;;;3.00;;
71655;SDS011;59497;48.798;8.816;2023-08-30T03:35:39;3.43;;;3.13;;
71655;SDS011;59497;48.798;8.816;2023-08-30T03:38:04;4.67;;;4.23;;
71655;SDS011;59497;48.798;8.816;2023-08-30T03:40:29;3.93;;;3.63;;
71655;SDS011;59497;48.798;8.816;2023-08-30T03:42:55;5.47;;;4.70;;
71655;SDS011;59497;48.798;8.816;2023-08-30T03:45:20;5.10;;;4.60;;
71655;SDS011;59497;48.798;8.816;2023-08-30T03:47:45;4.47;;;4.03;;
71655;SDS011;59497;48.798;8.816;2023-08-30T03:50:10;5.17;;;4.57;;
71655;SDS011;59497;48.798;8.816;2023-08-30T03:52:35;5.00;;;4.20;;
71655;SDS011;59497;48.798;8.816;2023-08-30T03:55:01;4.63;;;4.23;;
71655;SDS011;59497;48.798;8.816;2023-08-30T03:57:26;5.83;;;4.37;;
71655;SDS011;59497;48.798;8.816;2023-08-30T03:59:51;5.13;;;4.20;;
71655;SDS011;59497;48.798;8.816;2023-08-30T04:02:16;5.22;;;4.38;;
71655;SDS011;59497;48.798;8.816;2023-08-30T04:04:42;4.30;;;3.60;;
71655;SDS011;59497;48.798;8.816;2023-08-30T04:07:07;5.63;;;4.40;;
71655;SDS011;59497;48.798;8.816;2023-08-30T04:09:32;4.63;;;4.13;;
71655;SDS011;59497;48.798;8.816;2023-08-30T04:11:57;5.67;;;4.63;;
71655;SDS011;59497;48.798;8.816;2023-08-30T04:14:24;5.22;;;4.38;;
71655;SDS011;59497;48.798;8.816;2023-08-30T04:16:49;5.25;;;4.50;;
71655;SDS011;59497;48.798;8.816;2023-08-30T04:19:14;5.30;;;4.80;;
71655;SDS011;59497;48.798;8.816;2023-08-30T04:21:39;9.17;;;7.07;;
71655;SDS011;59497;48.798;8.816;2023-08-30T04:24:04;8.95;;;7.50;;
71655;SDS011;59497;48.798;8.816;2023-08-30T04:26:30;6.50;;;5.87;;
71655;SDS011;59497;48.798;8.816;2023-08-30T04:31:20;6.60;;;6.00;;
71655;SDS011;59497;48.798;8.816;2023-08-30T04:33:45;7.05;;;6.35;;
71655;SDS011;59497;48.798;8.816;2023-08-30T04:36:10;7.80;;;6.25;;
71655;SDS011;59497;48.798;8.816;2023-08-30T04:38:35;7.35;;;6.55;;
71655;SDS011;59497;48.798;8.816;2023-08-30T04:41:01;7.93;;;6.43;;
71655;SDS011;59497;48.798;8.816;2023-08-30T04:43:26;9.00;;;6.20;;
71655;SDS011;59497;48.798;8.816;2023-08-30T04:45:51;7.70;;;6.23;;
71655;SDS011;59497;48.798;8.816;2023-08-30T04:48:16;7.07;;;6.20;;
71655;SDS011;59497;48.798;8.816;2023-08-30T04:50:41;7.00;;;6.07;;
71655;SDS011;59497;48.798;8.816;2023-08-30T04:53:07;6.90;;;6.13;;
71655;SDS011;59497;48.798;8.816;2023-08-30T04:55:32;5.80;;;5.23;;
71655;SDS011;59497;48.798;8.816;2023-08-30T04:57:57;6.30;;;4.80;;
71655;SDS011;59497;48.798;8.816;2023-08-30T05:00:22;5.40;;;4.90;;
71655;SDS011;59497;48.798;8.816;2023-08-30T05:02:47;5.73;;;5.10;;
71655;SDS011;59497;48.798;8.816;2023-08-30T05:05:14;8.07;;;4.87;;
71655;SDS011;59497;48.798;8.816;2023-08-30T05:07:39;8.23;;;5.53;;
71655;SDS011;59497;48.798;8.816;2023-08-30T05:10:05;9.33;;;5.00;;
71655;SDS011;59497;48.798;8.816;2023-08-30T05:12:30;5.00;;;4.50;;
71655;SDS011;59497;48.798;8.816;2023-08-30T05:14:55;5.87;;;4.97;;
71655;SDS011;59497;48.798;8.816;2023-08-30T05:17:20;5.43;;;4.77;;
71655;SDS011;59497;48.798;8.816;2023-08-30T05:19:46;6.10;;;5.20;;
71655;SDS011;59497;48.798;8.816;2023-08-30T05:22:11;5.87;;;5.27;;
71655;SDS011;59497;48.798;8.816;2023-08-30T05:24:36;6.33;;;5.03;;
71655;SDS011;59497;48.798;8.816;2023-08-30T05:27:01;5.57;;;4.90;;
71655;SDS011;59497;48.798;8.816;2023-08-30T05:29:27;5.30;;;4.80;;
71655;SDS011;59497;48.798;8.816;2023-08-30T05:31:52;5.05;;;4.55;;
71655;SDS011;59497;48.798;8.816;2023-08-30T05:34:17;5.87;;;5.33;;
71655;SDS011;59497;48.798;8.816;2023-08-30T05:36:42;5.57;;;5.07;;
71655;SDS011;59497;48.798;8.816;2023-08-30T05:39:08;4.93;;;4.53;;
71655;SDS011;59497;48.798;8.816;2023-08-30T05:41:33;5.73;;;5.03;;
71655;SDS011;59497;48.798;8.816;2023-08-30T05:43:58;6.57;;;4.90;;
71655;SDS011;59497;48.798;8.816;2023-08-30T05:46:23;5.80;;;4.60;;
71655;SDS011;59497;48.798;8.816;2023-08-30T05:48:48;5.63;;;4.60;;
71655;SDS011;59497;48.798;8.816;2023-08-30T05:51:14;5.53;;;5.03;;
71655;SDS011;59497;48.798;8.816;2023-08-30T05:53:39;13.83;;;5.00;;
71655;SDS011;59497;48.798;8.816;2023-08-30T05:56:04;5.20;;;4.70;;
71655;SDS011;59497;48.798;8.816;2023-08-30T05:58:30;5.20;;;4.70;;
71655;SDS011;59497;48.798;8.816;2023-08-30T06:00:56;5.73;;;5.10;;
71655;SDS011;59497;48.798;8.816;2023-08-30T06:03:21;4.50;;;4.07;;
71655;SDS011;59497;48.798;8.816;2023-08-30T06:05:46;5.43;;;4.93;;
71655;SDS011;59497;48.798;8.816;2023-08-30T06:08:13;5.13;;;4.63;;
71655;SDS011;59497;48.798;8.816;2023-08-30T06:10:38;5.70;;;4.30;;
71655;SDS011;59497;48.798;8.816;2023-08-30T06:13:04;4.63;;;4.23;;
71655;SDS011;59497;48.798;8.816;2023-08-30T06:15:29;5.03;;;4.40;;
71655;SDS011;59497;48.798;8.816;2023-08-30T06:17:54;4.47;;;4.03;;
71655;SDS011;59497;48.798;8.816;2023-08-30T06:20:19;4.00;;;3.60;;
71655;SDS011;59497;48.798;8.816;2023-08-30T06:22:45;4.23;;;3.83;;
71655;SDS011;59497;48.798;8.816;2023-08-30T06:25:10;4.43;;;4.03;;
71655;SDS011;59497;48.798;8.816;2023-08-30T06:27:40;5.10;;;4.50;;
71655;SDS011;59497;48.798;8.816;2023-08-30T06:30:05;5.60;;;5.10;;
71655;SDS011;59497;48.798;8.816;2023-08-30T06:32:31;4.80;;;4.30;;
71655;SDS011;59497;48.798;8.816;2023-08-30T06:34:56;4.63;;;4.23;;
71655;SDS011;59497;48.798;8.816;2023-08-30T06:37:21;5.20;;;4.70;;
71655;SDS011;59497;48.798;8.816;2023-08-30T06:39:46;4.90;;;4.50;;
71655;SDS011;59497;48.798;8.816;2023-08-30T06:42:12;4.57;;;3.93;;
71655;SDS011;59497;48.798;8.816;2023-08-30T06:44:37;5.07;;;4.57;;
71655;SDS011;59497;48.798;8.816;2023-08-30T06:47:02;4.90;;;4.20;;
71655;SDS011;59497;48.798;8.816;2023-08-30T06:49:28;4.83;;;4.43;;
71655;SDS011;59497;48.798;8.816;2023-08-30T06:51:53;5.43;;;4.93;;
71655;SDS011;59497;48.798;8.816;2023-08-30T06:54:18;5.30;;;4.80;;
71655;SDS011;59497;48.798;8.816;2023-08-30T06:56:56;4.97;;;4.47;;
71655;SDS011;59497;48.798;8.816;2023-08-30T06:59:22;5.60;;;4.97;;
71655;SDS011;59497;48.798;8.816;2023-08-30T07:01:47;4.17;;;3.77;;
71655;SDS011;59497;48.798;8.816;2023-08-30T07:04:12;4.70;;;4.30;;
71655;SDS011;59497;48.798;8.816;2023-08-30T07:06:37;5.60;;;4.60;;
71655;SDS011;59497;48.798;8.816;2023-08-30T07:09:03;4.67;;;4.27;;
71655;SDS011;59497;48.798;8.816;2023-08-30T07:11:31;5.10;;;4.20;;
71655;SDS011;59497;48.798;8.816;2023-08-30T07:13:56;4.70;;;4.23;;
71655;SDS011;59497;48.798;8.816;2023-08-30T07:16:21;4.63;;;4.23;;
71655;SDS011;59497;48.798;8.816;2023-08-30T07:18:46;5.23;;;4.10;;
71655;SDS011;59497;48.798;8.816;2023-08-30T07:21:11;4.07;;;3.70;;
71655;SDS011;59497;48.798;8.816;2023-08-30T07:23:37;4.13;;;3.80;;
71655;SDS011;59497;48.798;8.816;2023-08-30T07:26:02;4.77;;;4.37;;
71655;SDS011;59497;48.798;8.816;2023-08-30T07:28:27;4.17;;;3.77;;
71655;SDS011;59497;48.798;8.816;2023-08-30T07:30:52;4.10;;;3.70;;
71655;SDS011;59497;48.798;8.816;2023-08-30T07:33:26;4.32;;;3.80;;
71655;SDS011;59497;48.798;8.816;2023-08-30T07:35:53;4.32;;;3.53;;
71655;SDS011;59497;48.798;8.816;2023-08-30T07:38:18;3.92;;;3.63;;
71655;SDS011;59497;48.798;8.816;2023-08-30T07:40:43;4.90;;;3.80;;
71655;SDS011;59497;48.798;8.816;2023-08-30T07:43:08;3.80;;;3.50;;
71655;SDS011;59497;48.798;8.816;2023-08-30T07:45:34;4.20;;;3.80;;
71655;SDS011;59497;48.798;8.816;2023-08-30T07:47:59;4.30;;;3.90;;
71655;SDS011;59497;48.798;8.816;2023-08-30T07:50:24;4.27;;;3.87;;
71655;SDS011;59497;48.798;8.816;2023-08-30T07:52:49;4.20;;;3.80;;
71655;SDS011;59497;48.798;8.816;2023-08-30T07:55:14;5.23;;;3.60;;
71655;SDS011;59497;48.798;8.816;2023-08-30T07:57:40;3.70;;;3.40;;
71655;SDS011;59497;48.798;8.816;2023-08-30T08:00:05;3.70;;;3.40;;
71655;SDS011;59497;48.798;8.816;2023-08-30T08:02:30;3.88;;;3.50;;
71655;SDS011;59497;48.798;8.816;2023-08-30T08:04:56;4.90;;;3.70;;
71655;SDS011;59497;48.798;8.816;2023-08-30T08:07:21;4.05;;;3.65;;
71655;SDS011;59497;48.798;8.816;2023-08-30T08:09:46;3.90;;;3.50;;
71655;SDS011;59497;48.798;8.816;2023-08-30T08:12:11;5.30;;;3.50;;
71655;SDS011;59497;48.798;8.816;2023-08-30T08:14:36;4.03;;;3.63;;
71655;SDS011;59497;48.798;8.816;2023-08-30T08:17:01;6.53;;;3.80;;
71655;SDS011;59497;48.798;8.816;2023-08-30T08:19:27;3.90;;;3.27;;
71655;SDS011;59497;48.798;8.816;2023-08-30T08:21:52;7.25;;;3.60;;
71655;SDS011;59497;48.798;8.816;2023-08-30T08:24:19;4.93;;;3.50;;
71655;SDS011;59497;48.798;8.816;2023-08-30T08:26:44;5.13;;;3.50;;
71655;SDS011;59497;48.798;8.816;2023-08-30T08:29:10;3.78;;;3.47;;
71655;SDS011;59497;48.798;8.816;2023-08-30T08:31:36;3.63;;;3.33;;
71655;SDS011;59497;48.798;8.816;2023-08-30T08:34:08;3.80;;;3.50;;
71655;SDS011;59497;48.798;8.816;2023-08-30T08:36:34;5.47;;;4.30;;
71655;SDS011;59497;48.798;8.816;2023-08-30T08:39:00;4.20;;;3.80;;
71655;SDS011;59497;48.798;8.816;2023-08-30T08:41:25;3.95;;;3.65;;
71655;SDS011;59497;48.798;8.816;2023-08-30T08:43:53;3.72;;;3.42;;
71655;SDS011;59497;48.798;8.816;2023-08-30T08:46:18;4.03;;;3.60;;
71655;SDS011;59497;48.798;8.816;2023-08-30T08:48:44;3.40;;;3.20;;
71655;SDS011;59497;48.798;8.816;2023-08-30T08:51:09;3.73;;;3.43;;
71655;SDS011;59497;48.798;8.816;2023-08-30T08:53:35;4.03;;;3.30;;
71655;SDS011;59497;48.798;8.816;2023-08-30T08:56:01;4.30;;;3.90;;
71655;SDS011;59497;48.798;8.816;2023-08-30T08:58:26;4.65;;;3.75;;
71655;SDS011;59497;48.798;8.816;2023-08-30T09:00:52;6.00;;;3.40;;
71655;SDS011;59497;48.798;8.816;2023-08-30T09:03:17;3.63;;;3.33;;
71655;SDS011;59497;48.798;8.816;2023-08-30T09:05:43;3.70;;;3.40;;
71655;SDS011;59497;48.798;8.816;2023-08-30T09:08:09;3.97;;;3.28;;
71655;SDS011;59497;48.798;8.816;2023-08-30T09:10:35;3.88;;;3.38;;
71655;SDS011;59497;48.798;8.816;2023-08-30T09:13:01;4.18;;;3.78;;
71655;SDS011;59497;48.798;8.816;2023-08-30T09:15:33;4.27;;;3.87;;
71655;SDS011;59497;48.798;8.816;2023-08-30T09:17:58;4.63;;;3.97;;
71655;SDS011;59497;48.798;8.816;2023-08-30T09:20:23;4.20;;;3.80;;
71655;SDS011;59497;48.798;8.816;2023-08-30T09:22:48;4.20;;;3.80;;
71655;SDS011;59497;48.798;8.816;2023-08-30T09:25:22;4.57;;;3.47;;
71655;SDS011;59497;48.798;8.816;2023-08-30T09:27:49;3.90;;;3.58;;
71655;SDS011;59497;48.798;8.816;2023-08-30T09:30:15;6.00;;;4.00;;
71655;SDS011;59497;48.798;8.816;2023-08-30T09:32:46;4.15;;;3.83;;
71655;SDS011;59497;48.798;8.816;2023-08-30T09:35:11;3.70;;;3.40;;
71655;SDS011;59497;48.798;8.816;2023-08-30T09:37:36;3.63;;;3.30;;
71655;SDS011;59497;48.798;8.816;2023-08-30T09:40:02;3.60;;;3.30;;
71655;SDS011;59497;48.798;8.816;2023-08-30T09:42:28;3.83;;;3.43;;
71655;SDS011;59497;48.798;8.816;2023-08-30T09:44:53;3.70;;;3.40;;
71655;SDS011;59497;48.798;8.816;2023-08-30T09:47:19;4.23;;;3.83;;
71655;SDS011;59497;48.798;8.816;2023-08-30T09:49:44;3.87;;;3.50;;
71655;SDS011;59497;48.798;8.816;2023-08-30T09:52:10;3.90;;;3.60;;
71655;SDS011;59497;48.798;8.816;2023-08-30T09:54:35;3.50;;;3.20;;
71655;SDS011;59497;48.798;8.816;2023-08-30T09:57:03;4.23;;;3.30;;
71655;SDS011;59497;48.798;8.816;2023-08-30T09:59:29;3.88;;;3.50;;
71655;SDS011;59497;48.798;8.816;2023-08-30T10:01:55;3.75;;;3.45;;
71655;SDS011;59497;48.798;8.816;2023-08-30T10:04:22;3.80;;;3.50;;
71655;SDS011;59497;48.798;8.816;2023-08-30T10:06:48;3.85;;;3.35;;
71655;SDS011;59497;48.798;8.816;2023-08-30T10:09:14;3.77;;;3.47;;
71655;SDS011;59497;48.798;8.816;2023-08-30T10:11:39;4.38;;;3.00;;
71655;SDS011;59497;48.798;8.816;2023-08-30T10:14:05;3.60;;;3.30;;
71655;SDS011;59497;48.798;8.816;2023-08-30T10:16:32;3.53;;;3.23;;
71655;SDS011;59497;48.798;8.816;2023-08-30T10:19:05;3.42;;;3.15;;
71655;SDS011;59497;48.798;8.816;2023-08-30T10:21:32;3.45;;;3.15;;
71655;SDS011;59497;48.798;8.816;2023-08-30T10:23:59;3.47;;;3.20;;
71655;SDS011;59497;48.798;8.816;2023-08-30T10:26:26;3.35;;;3.13;;
71655;SDS011;59497;48.798;8.816;2023-08-30T10:28:53;4.45;;;3.70;;
71655;SDS011;59497;48.798;8.816;2023-08-30T10:31:19;4.15;;;3.75;;
71655;SDS011;59497;48.798;8.816;2023-08-30T10:33:54;4.20;;;3.60;;
71655;SDS011;59497;48.798;8.816;2023-08-30T10:36:23;3.95;;;3.55;;
71655;SDS011;59497;48.798;8.816;2023-08-30T10:38:49;4.33;;;3.90;;
71655;SDS011;59497;48.798;8.816;2023-08-30T10:41:19;4.00;;;3.70;;
71655;SDS011;59497;48.798;8.816;2023-08-30T10:43:44;4.45;;;3.95;;
71655;SDS011;59497;48.798;8.816;2023-08-30T10:46:14;4.32;;;3.67;;
71655;SDS011;59497;48.798;8.816;2023-08-30T10:48:40;3.90;;;3.60;;
71655;SDS011;59497;48.798;8.816;2023-08-30T10:51:21;3.83;;;3.20;;
71655;SDS011;59497;48.798;8.816;2023-08-30T10:53:57;5.40;;;3.30;;
71655;SDS011;59497;48.798;8.816;2023-08-30T10:56:29;5.68;;;4.05;;
71655;SDS011;59497;48.798;8.816;2023-08-30T10:58:55;8.73;;;5.20;;
71655;SDS011;59497;48.798;8.816;2023-08-30T11:01:20;6.20;;;4.67;;
71655;SDS011;59497;48.798;8.816;2023-08-30T11:03:46;6.03;;;5.23;;
71655;SDS011;59497;48.798;8.816;2023-08-30T11:06:14;5.70;;;5.20;;
71655;SDS011;59497;48.798;8.816;2023-08-30T11:08:39;25.58;;;18.35;;
71655;SDS011;59497;48.798;8.816;2023-08-30T11:11:05;12.43;;;10.97;;
71655;SDS011;59497;48.798;8.816;2023-08-30T11:13:32;6.15;;;5.55;;
71655;SDS011;59497;48.798;8.816;2023-08-30T11:16:00;5.47;;;4.50;;
71655;SDS011;59497;48.798;8.816;2023-08-30T11:18:26;6.10;;;5.10;;
71655;SDS011;59497;48.798;8.816;2023-08-30T11:20:58;4.83;;;4.30;;
71655;SDS011;59497;48.798;8.816;2023-08-30T11:23:24;5.88;;;4.63;;
71655;SDS011;59497;48.798;8.816;2023-08-30T11:25:52;4.73;;;4.33;;
71655;SDS011;59497;48.798;8.816;2023-08-30T11:28:23;4.70;;;4.30;;
71655;SDS011;59497;48.798;8.816;2023-08-30T11:30:49;4.67;;;4.27;;
71655;SDS011;59497;48.798;8.816;2023-08-30T11:33:17;4.45;;;4.05;;
71655;SDS011;59497;48.798;8.816;2023-08-30T11:35:42;4.90;;;4.32;;
71655;SDS011;59497;48.798;8.816;2023-08-30T11:38:08;4.10;;;3.80;;
71655;SDS011;59497;48.798;8.816;2023-08-30T11:40:33;3.95;;;3.65;;
71655;SDS011;59497;48.798;8.816;2023-08-30T11:42:59;4.20;;;3.80;;
71655;SDS011;59497;48.798;8.816;2023-08-30T11:45:25;4.22;;;3.83;;
71655;SDS011;59497;48.798;8.816;2023-08-30T11:47:50;4.00;;;3.60;;
71655;SDS011;59497;48.798;8.816;2023-08-30T11:50:17;4.22;;;3.83;;
71655;SDS011;59497;48.798;8.816;2023-08-30T11:52:44;4.00;;;3.70;;
71655;SDS011;59497;48.798;8.816;2023-08-30T11:55:09;6.77;;;4.47;;
71655;SDS011;59497;48.798;8.816;2023-08-30T11:57:37;5.23;;;4.83;;
71655;SDS011;59497;48.798;8.816;2023-08-30T12:00:07;4.63;;;4.20;;
71655;SDS011;59497;48.798;8.816;2023-08-30T12:02:32;4.95;;;3.80;;
71655;SDS011;59497;48.798;8.816;2023-08-30T12:04:59;4.57;;;4.15;;
71655;SDS011;59497;48.798;8.816;2023-08-30T12:07:25;4.45;;;4.05;;
71655;SDS011;59497;48.798;8.816;2023-08-30T12:09:51;4.10;;;3.73;;
71655;SDS011;59497;48.798;8.816;2023-08-30T12:12:16;4.70;;;3.92;;
71655;SDS011;59497;48.798;8.816;2023-08-30T12:14:41;4.40;;;3.90;;
71655;SDS011;59497;48.798;8.816;2023-08-30T12:17:08;4.47;;;4.07;;
71655;SDS011;59497;48.798;8.816;2023-08-30T12:19:33;3.95;;;3.65;;
71655;SDS011;59497;48.798;8.816;2023-08-30T12:22:03;3.53;;;3.23;;
71655;SDS011;59497;48.798;8.816;2023-08-30T12:24:28;3.67;;;3.37;;
71655;SDS011;59497;48.798;8.816;2023-08-30T12:26:54;4.00;;;3.70;;
71655;SDS011;59497;48.798;8.816;2023-08-30T12:29:19;5.03;;;3.40;;
71655;SDS011;59497;48.798;8.816;2023-08-30T12:31:44;5.30;;;4.00;;
71655;SDS011;59497;48.798;8.816;2023-08-30T12:34:09;4.45;;;3.67;;
71655;SDS011;59497;48.798;8.816;2023-08-30T12:36:34;6.67;;;4.00;;
71655;SDS011;59497;48.798;8.816;2023-08-30T12:38:59;4.27;;;3.97;;
71655;SDS011;59497;48.798;8.816;2023-08-30T12:41:24;4.50;;;4.10;;
71655;SDS011;59497;48.798;8.816;2023-08-30T12:43:50;4.27;;;3.93;;
71655;SDS011;59497;48.798;8.816;2023-08-30T12:46:16;4.85;;;4.15;;
71655;SDS011;59497;48.798;8.816;2023-08-30T12:48:41;3.95;;;3.60;;
71655;SDS011;59497;48.798;8.816;2023-08-30T12:51:07;3.80;;;3.50;;
71655;SDS011;59497;48.798;8.816;2023-08-30T12:53:32;4.10;;;3.80;;
71655;SDS011;59497;48.798;8.816;2023-08-30T12:55:57;3.50;;;3.20;;
71655;SDS011;59497;48.798;8.816;2023-08-30T12:58:22;4.53;;;3.03;;
71655;SDS011;59497;48.798;8.816;2023-08-30T13:00:47;6.50;;;3.20;;
71655;SDS011;59497;48.798;8.816;2023-08-30T13:03:13;3.63;;;3.33;;
71655;SDS011;59497;48.798;8.816;2023-08-30T13:05:38;3.33;;;3.03;;
71655;SDS011;59497;48.798;8.816;2023-08-30T13:08:03;3.90;;;3.27;;
71655;SDS011;59497;48.798;8.816;2023-08-30T13:10:28;3.20;;;3.00;;
71655;SDS011;59497;48.798;8.816;2023-08-30T13:12:53;3.22;;;2.95;;
71655;SDS011;59497;48.798;8.816;2023-08-30T13:15:19;4.70;;;3.13;;
71655;SDS011;59497;48.798;8.816;2023-08-30T13:17:44;2.80;;;2.60;;
71655;SDS011;59497;48.798;8.816;2023-08-30T13:20:09;3.40;;;3.10;;
71655;SDS011;59497;48.798;8.816;2023-08-30T13:22:35;4.47;;;2.97;;
71655;SDS011;59497;48.798;8.816;2023-08-30T13:25:00;3.80;;;3.50;;
71655;SDS011;59497;48.798;8.816;2023-08-30T13:27:25;3.77;;;2.90;;
71655;SDS011;59497;48.798;8.816;2023-08-30T13:29:50;3.47;;;3.17;;
71655;SDS011;59497;48.798;8.816;2023-08-30T13:32:15;2.90;;;2.70;;
71655;SDS011;59497;48.798;8.816;2023-08-30T13:34:41;3.40;;;3.10;;
71655;SDS011;59497;48.798;8.816;2023-08-30T13:37:10;3.55;;;3.25;;
71655;SDS011;59497;48.798;8.816;2023-08-30T13:39:35;3.27;;;2.93;;
71655;SDS011;59497;48.798;8.816;2023-08-30T13:42:01;3.50;;;3.20;;
71655;SDS011;59497;48.798;8.816;2023-08-30T13:44:26;3.13;;;2.93;;
71655;SDS011;59497;48.798;8.816;2023-08-30T13:46:51;3.10;;;2.90;;
71655;SDS011;59497;48.798;8.816;2023-08-30T13:49:16;3.37;;;2.93;;
71655;SDS011;59497;48.798;8.816;2023-08-30T13:51:43;5.53;;;3.42;;
71655;SDS011;59497;48.798;8.816;2023-08-30T13:54:10;4.47;;;3.05;;
71655;SDS011;59497;48.798;8.816;2023-08-30T13:56:35;3.27;;;3.07;;
71655;SDS011;59497;48.798;8.816;2023-08-30T13:59:00;3.50;;;3.00;;
71655;SDS011;59497;48.798;8.816;2023-08-30T14:01:25;4.97;;;3.80;;
71655;SDS011;59497;48.798;8.816;2023-08-30T14:03:50;3.87;;;3.50;;
71655;SDS011;59497;48.798;8.816;2023-08-30T14:06:16;5.13;;;3.15;;
71655;SDS011;59497;48.798;8.816;2023-08-30T14:08:41;3.67;;;3.27;;
71655;SDS011;59497;48.798;8.816;2023-08-30T14:11:06;3.70;;;3.40;;
71655;SDS011;59497;48.798;8.816;2023-08-30T14:13:31;3.73;;;3.43;;
71655;SDS011;59497;48.798;8.816;2023-08-30T14:16:00;2.95;;;2.72;;
71655;SDS011;59497;48.798;8.816;2023-08-30T14:18:26;3.20;;;2.90;;
71655;SDS011;59497;48.798;8.816;2023-08-30T14:20:51;3.17;;;2.97;;
71655;SDS011;59497;48.798;8.816;2023-08-30T14:23:19;2.72;;;2.47;;
71655;SDS011;59497;48.798;8.816;2023-08-30T14:25:45;3.13;;;2.80;;
71655;SDS011;59497;48.798;8.816;2023-08-30T14:28:10;3.40;;;3.00;;
71655;SDS011;59497;48.798;8.816;2023-08-30T14:30:35;2.90;;;2.70;;
71655;SDS011;59497;48.798;8.816;2023-08-30T14:33:00;2.73;;;2.40;;
71655;SDS011;59497;48.798;8.816;2023-08-30T14:35:25;2.50;;;2.30;;
71655;SDS011;59497;48.798;8.816;2023-08-30T14:37:50;4.70;;;2.80;;
71655;SDS011;59497;48.798;8.816;2023-08-30T14:40:16;3.20;;;2.97;;
71655;SDS011;59497;48.798;8.816;2023-08-30T14:42:41;3.53;;;2.80;;
71655;SDS011;59497;48.798;8.816;2023-08-30T14:45:06;3.33;;;3.13;;
71655;SDS011;59497;48.798;8.816;2023-08-30T14:47:34;3.77;;;3.17;;
71655;SDS011;59497;48.798;8.816;2023-08-30T14:50:00;3.45;;;3.15;;